Time;durP1;ratioP1;P1;durP2;ratioP2;P2;SDS_P1;SDS_P2;PMS_P1;PMS_P2;Temp;Humidity;BMP_temperature;BMP_pressure;BME280_temperature;BME280_humidity;BME280_pressure;Samples;Min_cycle;Max_cycle;Signal;HPM_P1;HPM_P2
2022/06/25 00:01:19;;;;;;;;;1.25;1.25;;;;;36.15;23.19;100517.06;4901130;28;45435;-76
2022/06/25 00:03:45;;;;;;;;;5.00;3.00;;;;;36.22;22.91;100523.75;4901197;28;45518;-76
2022/06/25 00:06:11;;;;;;;;;1.67;1.67;;;;;36.35;22.74;100528.16;4901196;29;45518;-76
2022/06/25 00:08:37;;;;;;;;;1.25;1.25;;;;;36.14;23.10;100511.66;4915854;28;45559;-76
2022/06/25 00:11:04;;;;;;;;;2.00;2.00;;;;;36.13;22.95;100513.53;4901012;28;45310;-76
2022/06/25 00:13:30;;;;;;;;;1.00;0.00;;;;;35.89;23.26;100492.75;4901298;28;45379;-76
2022/06/25 00:15:55;;;;;;;;;2.00;2.00;;;;;36.05;23.25;100506.00;4901125;28;45605;-76
2022/06/25 00:18:21;;;;;;;;;1.00;1.00;;;;;36.19;22.81;100501.94;4900648;28;45397;-76
2022/06/25 00:20:46;;;;;;;;;2.00;2.00;;;;;36.21;23.08;100493.50;4901188;29;45443;-76
2022/06/25 00:23:13;;;;;;;;;1.33;1.33;;;;;36.13;23.32;100502.50;4915655;28;45450;-77
2022/06/25 00:25:38;;;;;;;;;2.00;2.00;;;;;35.98;23.04;100503.91;4901223;28;45377;-76
2022/06/25 00:28:04;;;;;;;;;2.67;1.00;;;;;36.10;23.41;100513.84;4900760;28;45497;-76
2022/06/25 00:30:30;;;;;;;;;1.67;1.33;;;;;36.21;22.73;100508.19;4900903;28;45521;-76
2022/06/25 00:32:56;;;;;;;;;1.00;1.00;;;;;36.08;22.97;100503.94;4900804;28;45422;-79
2022/06/25 00:35:21;;;;;;;;;1.00;1.00;;;;;35.98;23.45;100495.63;4900563;28;45346;-78
2022/06/25 00:37:47;;;;;;;;;2.00;2.00;;;;;35.98;23.41;100504.81;4900568;28;45686;-78
2022/06/25 00:40:13;;;;;;;;;4.00;3.00;;;;;35.94;23.06;100500.59;4900476;28;45643;-76
2022/06/25 00:42:46;;;;;;;;;2.00;2.00;;;;;36.05;23.49;100508.75;4901040;28;45258;-76
2022/06/25 00:45:11;;;;;;;;;3.00;2.00;;;;;36.03;23.64;100512.66;4914062;28;45315;-76
2022/06/25 00:47:38;;;;;;;;;2.00;2.00;;;;;35.87;23.37;100494.75;4900365;28;45438;-76
2022/06/25 00:50:04;;;;;;;;;2.67;2.67;;;;;36.05;23.01;100497.72;4900553;28;45404;-76
2022/06/25 00:52:33;;;;;;;;;2.00;2.00;;;;;36.06;23.42;100502.22;4900358;28;45602;-76
2022/06/25 00:55:05;;;;;;;;;2.00;2.00;;;;;35.90;23.35;100512.94;4900678;28;45509;-79
2022/06/25 00:57:33;;;;;;;;;2.75;2.00;;;;;35.85;23.44;100518.00;4900404;28;45369;-78
2022/06/25 01:00:05;;;;;;;;;2.00;2.00;;;;;35.93;23.30;100520.91;4900089;28;45302;-79
2022/06/25 01:02:30;;;;;;;;;2.00;2.00;;;;;35.70;24.43;100515.59;4900558;28;45392;-78
2022/06/25 01:04:56;;;;;;;;;3.33;2.33;;;;;35.79;24.46;100533.19;4900573;28;45522;-78
2022/06/25 01:07:21;;;;;;;;;3.00;3.00;;;;;35.90;24.21;100521.22;4900104;29;46345;-78
2022/06/25 01:09:50;;;;;;;;;4.67;3.00;;;;;36.06;24.08;100529.84;4900389;28;45439;-79
2022/06/25 01:12:16;;;;;;;;;3.00;3.00;;;;;36.10;23.95;100526.78;4900387;28;45320;-79
2022/06/25 01:14:42;;;;;;;;;3.00;3.00;;;;;36.08;23.88;100526.03;4914612;28;45500;-78
2022/06/25 01:17:08;;;;;;;;;2.00;2.00;;;;;35.98;23.98;100531.53;4900017;28;46094;-79
2022/06/25 01:19:35;;;;;;;;;2.00;2.00;;;;;35.87;23.64;100503.03;4900235;28;45268;-78
2022/06/25 01:22:07;;;;;;;;;3.00;3.00;;;;;35.99;24.15;100525.00;4900415;28;45184;-79
2022/06/25 01:24:34;;;;;;;;;2.00;2.00;;;;;36.09;24.05;100517.63;4914869;28;45548;-78
2022/06/25 01:26:59;;;;;;;;;3.00;3.00;;;;;35.99;23.91;100501.03;4900166;28;45376;-79
2022/06/25 01:29:25;;;;;;;;;2.00;2.00;;;;;36.05;24.08;100514.28;4899409;28;45371;-78
2022/06/25 01:31:51;;;;;;;;;2.00;2.00;;;;;36.14;23.75;100518.06;4900309;28;45412;-78
2022/06/25 01:34:17;;;;;;;;;3.00;3.00;;;;;36.14;24.01;100526.34;4899840;28;45478;-78
2022/06/25 01:36:42;;;;;;;;;2.00;2.00;;;;;36.06;23.86;100527.06;4899814;29;46463;-75
2022/06/25 01:39:08;;;;;;;;;2.00;2.00;;;;;36.10;23.78;100524.03;4899833;28;45354;-76
2022/06/25 01:41:33;;;;;;;;;1.67;1.67;;;;;35.89;23.94;100512.06;4898873;28;45328;-76
2022/06/25 01:43:58;;;;;;;;;5.00;2.00;;;;;36.03;23.96;100516.31;4899729;28;45403;-76
2022/06/25 01:46:24;;;;;;;;;1.50;1.50;;;;;35.98;23.76;100510.34;4914174;28;48221;-76
2022/06/25 01:48:49;;;;;;;;;2.00;2.00;;;;;35.89;23.63;100509.31;4899904;28;45382;-75
2022/06/25 01:51:16;;;;;;;;;3.00;2.00;;;;;35.93;23.89;100509.03;4899477;28;45406;-76
2022/06/25 01:53:42;;;;;;;;;1.00;1.00;;;;;36.15;23.94;100510.66;4899875;28;45333;-76
2022/06/25 01:56:07;;;;;;;;;2.67;2.00;;;;;36.16;23.86;100517.91;4899214;28;46081;-76
2022/06/25 01:58:34;;;;;;;;;3.33;1.33;;;;;36.05;24.04;100513.41;4899169;28;45739;-78
2022/06/25 02:01:00;;;;;;;;;2.00;1.00;;;;;36.04;24.15;100518.03;4899718;28;45492;-75
2022/06/25 02:03:26;;;;;;;;;3.00;2.00;;;;;35.99;23.81;100513.97;4899542;28;45281;-75
2022/06/25 02:05:57;;;;;;;;;3.67;2.00;;;;;36.00;24.08;100529.53;4914009;28;47888;-75
2022/06/25 02:08:26;;;;;;;;;1.00;1.00;;;;;36.03;24.09;100520.94;4899288;28;45332;-76
2022/06/25 02:10:51;;;;;;;;;3.00;3.00;;;;;36.01;24.12;100515.56;4899740;28;45592;-75
2022/06/25 02:13:16;;;;;;;;;2.00;2.00;;;;;35.81;24.26;100505.50;4898743;28;45520;-75
2022/06/25 02:15:42;;;;;;;;;2.00;2.00;;;;;35.96;24.11;100523.41;4899528;28;46370;-78
2022/06/25 02:18:10;;;;;;;;;2.00;2.00;;;;;35.80;24.58;100518.38;4899381;28;45463;-78
2022/06/25 02:20:35;;;;;;;;;1.00;1.00;;;;;35.83;24.30;100520.03;4899474;28;45421;-78
2022/06/25 02:23:01;;;;;;;;;5.00;3.00;;;;;35.64;24.23;100518.03;4899322;29;45823;-79
2022/06/25 02:25:26;;;;;;;;;2.00;2.00;;;;;35.71;24.41;100527.50;4898965;28;45860;-79
2022/06/25 02:27:52;;;;;;;;;3.00;2.00;;;;;35.87;24.26;100527.88;4899142;28;45357;-78
2022/06/25 02:30:17;;;;;;;;;2.00;2.00;;;;;35.69;24.51;100513.84;4899209;28;45399;-79
2022/06/25 02:32:43;;;;;;;;;1.00;1.00;;;;;35.73;24.26;100514.44;4899491;28;45425;-78
2022/06/25 02:35:08;;;;;;;;;1.50;1.00;;;;;35.68;24.39;100514.88;4898595;28;46132;-78
2022/06/25 02:37:34;;;;;;;;;1.67;1.67;;;;;35.54;24.85;100507.84;4898884;28;45284;-79
2022/06/25 02:39:59;;;;;;;;;2.00;2.00;;;;;35.47;24.76;100497.50;4899317;29;45399;-78
2022/06/25 02:42:25;;;;;;;;;4.00;2.00;;;;;35.66;24.45;100500.34;4898704;28;45621;-78
2022/06/25 02:44:50;;;;;;;;;1.33;1.00;;;;;35.60;24.91;100506.44;4899165;28;45588;-78
2022/06/25 02:47:15;;;;;;;;;2.00;2.00;;;;;35.62;24.28;100503.53;4899022;28;45325;-78
2022/06/25 02:49:41;;;;;;;;;2.00;1.00;;;;;35.72;24.73;100499.78;4913372;28;45522;-79
2022/06/25 02:52:06;;;;;;;;;3.00;3.00;;;;;35.67;24.53;100502.09;4898989;28;45364;-76
2022/06/25 02:54:32;;;;;;;;;2.67;2.67;;;;;35.62;24.39;100492.47;4898645;28;45460;-76
2022/06/25 02:59:42;;;;;;;;;1.00;1.00;;;;;35.89;24.63;100525.88;4898957;29;45359;-78
2022/06/25 03:02:07;;;;;;;;;3.00;1.67;;;;;35.75;24.32;100515.16;4898953;28;45684;-78
2022/06/25 03:04:33;;;;;;;;;2.00;1.00;;;;;35.78;24.65;100519.53;4913099;28;46106;-78
2022/06/25 03:06:58;;;;;;;;;1.33;1.33;;;;;35.67;24.33;100512.28;4898738;28;45328;-78
2022/06/25 03:09:23;;;;;;;;;1.00;1.00;;;;;35.81;24.45;100539.50;4902411;28;45676;-78
2022/06/25 03:11:49;;;;;;;;;4.00;3.00;;;;;35.71;24.21;100525.63;4901814;28;45481;-78
2022/06/25 03:14:16;;;;;;;;;4.33;3.33;;;;;35.76;24.42;100541.75;4901915;28;45598;-78
2022/06/25 03:16:41;;;;;;;;;2.00;2.00;;;;;35.77;24.41;100532.47;4902088;28;45324;-79
2022/06/25 03:19:07;;;;;;;;;2.00;1.67;;;;;35.73;24.50;100534.63;4902238;28;45425;-78
2022/06/25 03:21:32;;;;;;;;;2.33;2.33;;;;;35.46;24.69;100485.59;4900575;29;45411;-76
2022/06/25 03:23:57;;;;;;;;;3.00;2.00;;;;;35.61;25.02;100523.84;4916516;28;47301;-76
2022/06/25 03:26:23;;;;;;;;;2.00;2.00;;;;;35.62;24.85;100531.13;4901121;28;45339;-76
2022/06/25 03:28:48;;;;;;;;;2.00;2.00;;;;;35.70;24.96;100534.06;4902150;28;45495;-76
2022/06/25 03:31:14;;;;;;;;;3.67;1.33;;;;;35.60;25.08;100550.56;4901794;28;45708;-76
2022/06/25 03:33:39;;;;;;;;;1.00;1.00;;;;;35.62;24.98;100554.06;4901520;28;46602;-76
2022/06/25 03:36:04;;;;;;;;;1.00;1.00;;;;;35.50;25.65;100542.25;4901722;28;45561;-77
2022/06/25 03:38:30;;;;;;;;;1.00;1.00;;;;;35.43;25.81;100548.44;4901400;29;45399;-75
2022/06/25 03:41:32;;;;;;;;;0.50;0.00;;;;;35.39;26.09;100564.41;4901658;28;45521;-76
2022/06/25 03:43:42;;;;;;;;;1.00;1.00;;;;;35.39;25.94;100547.88;4901389;28;46061;-76
2022/06/25 03:46:07;;;;;;;;;0.00;0.00;;;;;35.22;26.26;100558.47;4901675;29;45383;-76
2022/06/25 03:48:32;;;;;;;;;0.00;0.00;;;;;35.19;26.19;100553.22;4901527;28;45507;-76
2022/06/25 03:50:58;;;;;;;;;0.00;0.00;;;;;35.21;26.09;100553.97;4901831;28;45613;-76
2022/06/25 03:53:23;;;;;;;;;0.00;0.00;;;;;34.95;26.38;100523.19;4915672;28;48665;-76
2022/06/25 03:55:49;;;;;;;;;0.67;0.67;;;;;35.15;26.31;100551.75;4901218;29;45617;-78
2022/06/25 03:58:14;;;;;;;;;0.00;0.00;;;;;35.30;26.31;100560.59;4901482;28;45445;-78
2022/06/25 04:00:39;;;;;;;;;0.25;0.25;;;;;35.21;26.34;100555.84;4901432;28;45395;-79
2022/06/25 04:03:05;;;;;;;;;1.00;1.00;;;;;35.20;26.36;100546.72;4901210;28;46317;-79
2022/06/25 04:05:30;;;;;;;;;0.00;0.00;;;;;35.25;26.45;100567.47;4901202;28;45358;-78
2022/06/25 04:07:56;;;;;;;;;1.00;1.00;;;;;35.26;26.17;100550.81;4900231;29;45539;-78
2022/06/25 04:10:21;;;;;;;;;0.00;0.00;;;;;35.19;26.36;100568.88;4900907;29;45240;-78
2022/06/25 04:12:46;;;;;;;;;0.00;0.00;;;;;35.27;26.27;100565.47;4915817;28;45954;-78
2022/06/25 04:15:12;;;;;;;;;0.00;0.00;;;;;35.34;26.52;100561.19;4901218;28;45461;-79
2022/06/25 04:17:37;;;;;;;;;0.00;0.00;;;;;35.38;26.00;100555.25;4901227;28;45293;-79
2022/06/25 04:20:03;;;;;;;;;1.00;1.00;;;;;35.57;26.26;100563.75;4901173;28;45401;-79
2022/06/25 04:22:28;;;;;;;;;1.00;1.00;;;;;35.50;26.06;100567.09;4900728;28;46550;-78
2022/06/25 04:24:53;;;;;;;;;0.00;0.00;;;;;35.38;25.93;100540.59;4915313;28;45359;-79
2022/06/25 04:30:03;;;;;;;;;1.00;1.00;;;;;35.45;25.83;100546.44;4901144;29;45432;-78
2022/06/25 04:32:28;;;;;;;;;2.00;0.67;;;;;35.56;25.63;100565.66;4900411;28;46310;-78
2022/06/25 04:34:54;;;;;;;;;1.67;0.67;;;;;35.52;25.42;100559.53;4900885;28;45366;-78
2022/06/25 04:37:19;;;;;;;;;2.33;1.00;;;;;35.55;25.68;100575.81;4900481;29;48455;-79
2022/06/25 04:39:44;;;;;;;;;1.33;1.33;;;;;35.50;25.90;100569.84;4900503;28;45451;-79
2022/06/25 04:42:10;;;;;;;;;1.00;1.00;;;;;35.62;25.54;100561.47;4900971;28;45356;-79
2022/06/25 04:44:35;;;;;;;;;1.00;1.00;;;;;35.83;25.08;100576.09;4900576;28;45466;-78
2022/06/25 04:47:00;;;;;;;;;0.75;0.50;;;;;35.72;25.34;100576.16;4900865;29;45439;-78
2022/06/25 04:49:26;;;;;;;;;1.33;1.33;;;;;35.58;25.41;100577.41;4900651;28;45569;-79
2022/06/25 04:51:51;;;;;;;;;1.00;1.00;;;;;35.82;25.42;100584.53;4899700;28;45429;-78
2022/06/25 04:54:16;;;;;;;;;1.00;1.00;;;;;35.83;25.12;100586.28;4900292;28;45413;-79
2022/06/25 04:56:42;;;;;;;;;0.00;0.00;;;;;35.69;25.05;100581.97;4900518;28;45322;-78
2022/06/25 04:59:07;;;;;;;;;2.67;1.00;;;;;35.67;25.48;100589.53;4900765;28;45507;-79
2022/06/25 05:01:33;;;;;;;;;1.00;1.00;;;;;35.49;25.39;100579.13;4900149;28;46286;-79
2022/06/25 05:03:59;;;;;;;;;1.00;1.00;;;;;35.35;25.47;100579.47;4900473;29;45403;-78
2022/06/25 05:06:24;;;;;;;;;0.75;0.75;;;;;35.32;25.54;100599.94;4890272;28;45414;-76
2022/06/25 05:08:49;;;;;;;;;1.00;1.00;;;;;35.41;25.71;100605.66;4895750;29;45500;-76
2022/06/25 05:11:15;;;;;;;;;0.00;0.00;;;;;35.44;25.25;100594.34;4911621;28;45998;-77
2022/06/25 05:13:40;;;;;;;;;3.25;1.00;;;;;35.40;25.07;100588.22;4899539;29;45417;-77
2022/06/25 05:16:06;;;;;;;;;1.00;1.00;;;;;35.52;24.80;100603.66;4900544;28;45370;-77
2022/06/25 05:18:31;;;;;;;;;1.25;1.25;;;;;35.70;24.94;100603.91;4914800;28;45457;-77
2022/06/25 05:20:57;;;;;;;;;1.00;1.00;;;;;35.69;25.11;100602.16;4900274;29;46122;-77
2022/06/25 05:23:22;;;;;;;;;1.50;0.75;;;;;35.68;24.68;100605.06;4900311;29;45509;-77
2022/06/25 05:25:47;;;;;;;;;1.00;1.00;;;;;35.83;24.54;100622.16;4899588;29;45485;-77
2022/06/25 05:28:15;;;;;;;;;1.00;1.00;;;;;35.54;25.14;100609.03;4899440;28;45536;-78
2022/06/25 05:30:40;;;;;;;;;0.00;0.00;;;;;35.49;25.01;100609.47;4898716;28;46461;-77
2022/06/25 05:33:06;;;;;;;;;2.00;1.00;;;;;35.45;24.58;100594.19;4899788;28;45386;-78
2022/06/25 05:35:31;;;;;;;;;0.75;0.75;;;;;35.63;24.67;100610.13;4909531;28;45433;-78
2022/06/25 05:37:57;;;;;;;;;1.00;1.00;;;;;35.69;24.71;100604.91;4899831;28;45569;-78
2022/06/25 05:40:22;;;;;;;;;0.75;0.75;;;;;35.82;24.47;100623.16;4899803;28;45457;-78
2022/06/25 05:42:48;;;;;;;;;0.00;0.00;;;;;35.73;24.91;100611.03;4899688;28;45380;-77
2022/06/25 05:45:13;;;;;;;;;0.50;0.50;;;;;35.81;25.02;100616.78;4899823;28;45439;-77
2022/06/25 05:47:39;;;;;;;;;1.00;1.00;;;;;35.83;24.57;100623.03;4899700;28;45596;-78
2022/06/25 05:50:06;;;;;;;;;2.25;1.00;;;;;35.80;24.75;100606.72;4899001;29;45414;-77
2022/06/25 05:52:31;;;;;;;;;1.00;1.00;;;;;35.84;24.70;100618.41;4913855;28;45864;-78
2022/06/25 05:54:57;;;;;;;;;1.50;1.00;;;;;35.81;24.62;100607.63;4899766;28;45269;-77
2022/06/25 05:57:22;;;;;;;;;1.00;1.00;;;;;35.80;24.86;100615.00;4898048;28;45337;-78
2022/06/25 05:59:47;;;;;;;;;1.00;1.00;;;;;35.75;24.59;100608.16;4895188;29;45393;-77
2022/06/25 06:02:13;;;;;;;;;1.00;1.00;;;;;35.87;24.51;100615.34;4899471;28;45299;-78
2022/06/25 06:04:38;;;;;;;;;1.00;1.00;;;;;35.88;24.32;100609.69;4899373;28;45256;-78
2022/06/25 06:07:05;;;;;;;;;1.00;1.00;;;;;35.92;24.39;100592.84;4899625;28;45260;-78
2022/06/25 06:09:32;;;;;;;;;1.00;0.00;;;;;36.02;24.44;100613.06;4899543;28;45405;-77
2022/06/25 06:11:58;;;;;;;;;1.25;1.25;;;;;35.94;24.17;100607.41;4899190;28;45557;-77
2022/06/25 06:14:23;;;;;;;;;1.00;0.00;;;;;35.79;24.07;100612.38;4899766;28;45411;-77
2022/06/25 06:16:48;;;;;;;;;0.00;0.00;;;;;35.79;24.41;100604.97;4899074;29;48616;-78
2022/06/25 06:19:14;;;;;;;;;1.50;1.00;;;;;35.99;24.50;100621.63;4898978;28;45497;-77
2022/06/25 06:21:40;;;;;;;;;1.00;1.00;;;;;35.98;24.05;100619.88;4894331;28;45541;-77
2022/06/25 06:24:06;;;;;;;;;0.00;0.00;;;;;35.98;23.70;100615.25;4892911;29;45481;-77
2022/06/25 06:26:32;;;;;;;;;1.00;1.00;;;;;36.04;24.30;100619.34;4893196;28;45356;-77
2022/06/25 06:28:57;;;;;;;;;1.00;1.00;;;;;36.19;23.48;100622.56;4898943;28;45447;-77
2022/06/25 06:31:23;;;;;;;;;1.00;1.00;;;;;36.17;23.67;100624.59;4898736;29;46142;-78
2022/06/25 06:33:48;;;;;;;;;1.00;1.00;;;;;36.21;23.24;100615.91;4898349;28;45360;-78
2022/06/25 06:36:13;;;;;;;;;0.75;0.75;;;;;36.21;23.58;100612.28;4899098;28;45555;-77
2022/06/25 06:38:39;;;;;;;;;0.00;0.00;;;;;36.05;23.70;100613.69;4898538;28;45455;-77
2022/06/25 06:41:04;;;;;;;;;0.00;0.00;;;;;36.03;24.25;100635.03;4898350;28;45474;-78
2022/06/25 06:43:30;;;;;;;;;1.00;1.00;;;;;36.07;23.98;100619.06;4905012;28;45541;-78
2022/06/25 06:45:55;;;;;;;;;1.00;1.00;;;;;36.04;23.96;100625.72;4882231;29;47082;-77
2022/06/25 06:48:21;;;;;;;;;1.00;1.00;;;;;36.04;24.01;100613.81;4898952;28;45596;-78
2022/06/25 06:50:46;;;;;;;;;1.25;1.00;;;;;36.13;24.32;100609.34;4898188;28;45452;-77
2022/06/25 06:53:11;;;;;;;;;1.00;1.00;;;;;35.97;24.05;100561.03;4897653;28;45381;-77
2022/06/25 06:55:36;;;;;;;;;3.00;0.67;;;;;36.14;23.76;100594.53;4891122;29;45407;-77
2022/06/25 06:58:02;;;;;;;;;0.50;0.50;;;;;36.19;23.72;100620.69;4880085;29;47406;-78
2022/06/25 07:00:27;;;;;;;;;2.00;1.00;;;;;36.13;23.88;100621.25;4889566;29;45395;-77
2022/06/25 07:02:52;;;;;;;;;1.00;1.00;;;;;36.12;24.04;100622.28;4908959;28;45462;-78
2022/06/25 07:05:18;;;;;;;;;2.00;1.00;;;;;36.15;24.15;100633.03;4880158;29;45466;-78
2022/06/25 07:07:43;;;;;;;;;1.00;0.25;;;;;36.09;23.54;100629.97;4889235;29;45837;-78
2022/06/25 07:10:09;;;;;;;;;1.00;1.00;;;;;35.91;23.47;100626.97;4892166;28;45415;-77
2022/06/25 07:12:34;;;;;;;;;2.00;1.00;;;;;36.01;23.40;100628.78;4879920;29;45525;-77
2022/06/25 07:14:59;;;;;;;;;1.00;1.00;;;;;36.02;23.31;100624.13;4880185;29;45316;-77
2022/06/25 07:17:25;;;;;;;;;1.00;1.00;;;;;35.78;23.15;100613.38;4897808;28;45353;-77
2022/06/25 07:19:52;;;;;;;;;1.00;1.00;;;;;35.98;23.35;100620.78;4898091;28;45438;-77
2022/06/25 07:22:17;;;;;;;;;3.00;1.00;;;;;35.95;22.90;100628.44;4898598;28;45451;-77
2022/06/25 07:24:42;;;;;;;;;0.25;0.25;;;;;36.06;23.27;100644.91;4898747;28;45505;-77
2022/06/25 07:27:08;;;;;;;;;2.50;1.00;;;;;36.14;23.70;100631.28;4898531;28;46341;-77
2022/06/25 07:29:33;;;;;;;;;1.50;1.00;;;;;36.16;23.74;100639.44;4896744;28;45222;-68
2022/06/25 07:31:59;;;;;;;;;1.00;1.00;;;;;36.31;23.81;100631.66;4898377;28;45342;-68
2022/06/25 07:34:24;;;;;;;;;0.75;0.75;;;;;36.33;23.85;100637.91;4897255;29;49206;-68
2022/06/25 07:36:49;;;;;;;;;1.75;0.00;;;;;36.44;23.36;100646.06;4897448;28;45513;-67
2022/06/25 07:39:15;;;;;;;;;1.75;1.75;;;;;36.39;23.65;100609.72;4887282;28;45469;-67
2022/06/25 07:41:40;;;;;;;;;1.33;1.00;;;;;36.73;23.44;100643.34;4898348;28;45230;-67
2022/06/25 07:44:06;;;;;;;;;3.00;1.67;;;;;36.81;22.95;100655.63;4894475;28;45328;-67
2022/06/25 07:46:31;;;;;;;;;1.00;1.00;;;;;36.84;23.18;100656.22;4894745;29;45709;-67
2022/06/25 07:48:56;;;;;;;;;2.00;1.00;;;;;36.81;22.55;100655.63;4900234;28;45267;-67
2022/06/25 07:54:06;;;;;;;;;1.00;1.00;;;;;36.76;22.61;100652.41;4891515;28;45480;-67
2022/06/25 07:56:31;;;;;;;;;4.00;1.00;;;;;36.75;21.89;100654.25;4901441;28;46309;-68
2022/06/25 07:58:56;;;;;;;;;1.50;1.00;;;;;36.82;22.28;100661.03;4892949;28;45721;-68
2022/06/25 08:01:22;;;;;;;;;2.75;1.00;;;;;36.78;22.45;100654.00;4890864;28;45659;-67
2022/06/25 08:03:47;;;;;;;;;1.00;1.00;;;;;36.99;22.12;100666.84;4900195;28;45500;-67
2022/06/25 08:06:13;;;;;;;;;1.00;1.00;;;;;37.04;21.91;100672.81;4903075;28;46332;-67
2022/06/25 08:08:39;;;;;;;;;0.00;0.00;;;;;37.04;21.04;100673.69;4893207;28;45441;-67
2022/06/25 08:11:05;;;;;;;;;1.00;1.00;;;;;37.10;21.70;100683.28;4886188;28;45502;-67
2022/06/25 08:13:30;;;;;;;;;1.00;1.00;;;;;36.98;21.29;100659.56;4890523;29;45468;-67
2022/06/25 08:15:56;;;;;;;;;1.00;1.00;;;;;36.89;21.27;100664.06;4899292;29;46192;-67
2022/06/25 08:18:22;;;;;;;;;0.25;0.25;;;;;36.77;21.29;100662.44;4900335;29;45481;-69
2022/06/25 08:20:48;;;;;;;;;1.00;0.75;;;;;36.86;21.31;100665.22;4901245;28;45433;-67
2022/06/25 08:23:14;;;;;;;;;2.75;2.00;;;;;36.99;21.86;100680.66;4901018;28;45464;-67
2022/06/25 08:25:39;;;;;;;;;0.67;0.67;;;;;36.91;21.48;100673.97;4900683;28;45382;-77
2022/06/25 08:28:05;;;;;;;;;3.00;1.00;;;;;37.01;21.24;100662.03;4908067;28;45416;-78
2022/06/25 08:30:30;;;;;;;;;1.00;1.00;;;;;37.18;20.93;100677.91;4881608;29;45387;-77
2022/06/25 08:32:55;;;;;;;;;3.00;0.00;;;;;37.02;21.51;100652.72;4895094;28;45591;-75
2022/06/25 08:35:21;;;;;;;;;1.25;1.00;;;;;37.08;21.39;100675.13;4898049;28;45998;-79
2022/06/25 08:37:48;;;;;;;;;2.00;2.00;;;;;37.03;21.15;100690.41;4899782;29;45536;-75
2022/06/25 08:40:16;;;;;;;;;1.00;1.00;;;;;36.78;21.36;100683.53;4897026;28;45639;-76
2022/06/25 08:42:42;;;;;;;;;1.00;1.00;;;;;36.83;21.42;100687.63;4899439;29;45460;-74
2022/06/25 08:45:08;;;;;;;;;1.00;1.00;;;;;36.68;21.79;100659.53;4899602;29;45431;-79
2022/06/25 08:47:33;;;;;;;;;2.00;1.00;;;;;36.72;21.82;100685.88;4893814;29;45281;-75
2022/06/25 08:50:00;;;;;;;;;1.00;1.00;;;;;36.59;21.71;100693.53;4893515;29;45450;-75
2022/06/25 08:52:30;;;;;;;;;1.00;1.00;;;;;36.63;21.41;100692.22;4899392;28;45307;-75
2022/06/25 08:54:56;;;;;;;;;1.00;1.00;;;;;36.40;21.24;100686.94;4899947;29;45559;-74
2022/06/25 08:57:22;;;;;;;;;1.25;0.50;;;;;36.26;20.97;100691.94;4899843;29;45470;-75
2022/06/25 08:59:48;;;;;;;;;1.00;1.00;;;;;36.32;21.07;100702.47;4914548;28;45964;-76
2022/06/25 09:02:13;;;;;;;;;1.75;1.00;;;;;36.20;21.62;100682.31;4898406;29;45369;-76
2022/06/25 09:04:39;;;;;;;;;1.00;1.00;;;;;36.26;21.69;100678.13;4911661;28;47278;-75
2022/06/25 09:07:11;;;;;;;;;1.25;1.25;;;;;36.57;21.22;100696.44;4897085;29;45477;-75
2022/06/25 09:09:37;;;;;;;;;1.00;1.00;;;;;36.51;21.50;100687.84;4897762;29;45520;-76
2022/06/25 09:12:08;;;;;;;;;0.25;0.25;;;;;36.46;21.25;100690.16;4895804;28;45597;-76
2022/06/25 09:14:35;;;;;;;;;1.00;1.00;;;;;36.37;21.06;100702.91;4896540;29;46272;-75
2022/06/25 09:17:04;;;;;;;;;2.00;1.00;;;;;36.32;21.06;100694.19;4898486;29;45479;-67
2022/06/25 09:19:40;;;;;;;;;2.00;1.00;;;;;36.42;20.97;100700.63;4897021;28;45464;-67
2022/06/25 09:22:07;;;;;;;;;1.50;0.50;;;;;36.53;21.29;100694.97;4897924;29;45584;-67
2022/06/25 09:24:40;;;;;;;;;1.00;1.00;;;;;36.50;20.96;100697.13;4899174;29;45328;-69
2022/06/25 09:27:06;;;;;;;;;2.00;1.00;;;;;36.30;21.19;100677.75;4900154;28;45337;-68
2022/06/25 09:29:43;;;;;;;;;2.25;1.00;;;;;36.49;21.33;100689.88;4897441;28;45415;-68
2022/06/25 09:32:09;;;;;;;;;1.00;1.00;;;;;36.60;20.74;100680.56;4898957;28;45573;-68
2022/06/25 09:34:36;;;;;;;;;1.00;0.00;;;;;36.68;21.10;100672.44;4899204;28;46212;-69
2022/06/25 09:37:23;;;;;;;;;1.00;1.00;;;;;36.90;20.49;100680.50;4897549;28;46628;-74
2022/06/25 09:39:50;;;;;;;;;0.50;0.00;;;;;36.91;21.10;100685.03;4882848;29;45550;-70
2022/06/25 09:42:26;;;;;;;;;5.00;1.75;;;;;36.85;21.00;100680.09;4879761;29;45529;-70
2022/06/25 09:45:08;;;;;;;;;3.00;1.00;;;;;36.88;21.22;100685.31;4880586;29;45446;-71
2022/06/25 09:47:38;;;;;;;;;2.00;2.00;;;;;36.77;21.22;100695.63;4880830;29;45312;-70
2022/06/25 09:50:17;;;;;;;;;1.00;1.00;;;;;36.70;21.20;100690.66;4879682;29;45459;-70
2022/06/25 09:52:54;;;;;;;;;2.50;1.00;;;;;36.64;21.59;100687.56;4892773;29;45410;-70
2022/06/25 09:55:23;;;;;;;;;1.50;1.50;;;;;36.58;21.42;100686.25;4897209;28;46127;-70
2022/06/25 09:57:49;;;;;;;;;2.00;1.00;;;;;36.49;21.47;100685.22;4896671;28;45471;-70
2022/06/25 10:00:14;;;;;;;;;1.75;1.00;;;;;36.49;21.93;100692.66;4911978;28;45432;-70
2022/06/25 10:02:44;;;;;;;;;1.00;1.00;;;;;36.50;21.53;100689.72;4897457;29;45785;-70
2022/06/25 10:05:11;;;;;;;;;1.25;1.25;;;;;36.44;21.99;100687.53;4896976;29;45964;-70
2022/06/25 10:10:22;;;;;;;;;1.00;1.00;;;;;36.42;21.95;100705.28;4899039;29;45458;-70
2022/06/25 10:12:49;;;;;;;;;2.00;2.00;;;;;36.35;22.53;100705.81;4899045;28;45491;-71
2022/06/25 10:15:17;;;;;;;;;1.50;1.50;;;;;36.27;22.33;100699.22;4898931;28;45521;-70
2022/06/25 10:17:45;;;;;;;;;2.00;2.00;;;;;36.22;22.70;100686.69;4898699;28;45478;-70
2022/06/25 10:20:10;;;;;;;;;1.00;1.00;;;;;36.30;22.21;100699.88;4899286;28;45410;-70
2022/06/25 10:22:38;;;;;;;;;1.25;1.00;;;;;36.23;22.44;100710.56;4899285;28;45409;-70
2022/06/25 10:25:04;;;;;;;;;1.00;1.00;;;;;36.25;22.25;100709.56;4899054;28;46377;-70
2022/06/25 10:27:38;;;;;;;;;2.00;2.00;;;;;36.17;22.25;100700.03;4898733;28;45335;-70
2022/06/25 10:30:03;;;;;;;;;2.00;2.00;;;;;36.16;22.62;100701.09;4899143;28;45363;-70
2022/06/25 10:32:29;;;;;;;;;3.00;2.00;;;;;36.16;22.84;100701.09;4898598;28;45516;-70
2022/06/25 10:35:01;;;;;;;;;2.00;2.00;;;;;36.13;22.90;100692.19;4898695;28;45646;-70
2022/06/25 10:37:26;;;;;;;;;2.00;2.00;;;;;36.11;22.85;100680.41;4913305;28;45494;-70
2022/06/25 10:39:56;;;;;;;;;3.00;3.00;;;;;36.17;22.73;100691.75;4898755;28;45361;-70
2022/06/25 10:45:14;;;;;;;;;4.33;3.00;;;;;36.27;23.03;100705.59;4898629;29;45212;-70
2022/06/25 10:47:40;;;;;;;;;2.00;2.00;;;;;36.12;22.85;100685.78;4898730;28;45407;-70
2022/06/25 10:50:21;;;;;;;;;2.00;2.00;;;;;36.29;22.72;100699.94;4899134;28;45514;-70
2022/06/25 10:53:08;;;;;;;;;4.33;3.33;;;;;36.34;23.15;100709.59;4898824;29;45344;-70
2022/06/25 10:55:56;;;;;;;;;1.00;1.00;;;;;36.37;22.79;100697.38;4898152;29;46697;-69
2022/06/25 10:58:24;;;;;;;;;2.33;2.00;;;;;36.39;23.12;100703.66;4898196;28;45436;-69
2022/06/25 11:00:54;;;;;;;;;2.67;2.00;;;;;36.39;22.87;100700.91;4898790;29;45448;-70
2022/06/25 11:03:28;;;;;;;;;2.00;2.00;;;;;36.46;22.67;100702.09;4898438;28;45608;-70
2022/06/25 11:05:56;;;;;;;;;2.00;2.00;;;;;36.43;22.89;100701.47;4898500;29;46275;-70
2022/06/25 11:08:26;;;;;;;;;4.50;2.75;;;;;36.40;22.68;100703.53;4898241;28;45497;-70
2022/06/25 11:10:51;;;;;;;;;3.00;2.00;;;;;36.46;22.31;100712.28;4898156;28;45405;-70
2022/06/25 11:13:17;;;;;;;;;3.00;3.00;;;;;36.46;22.82;100704.84;4898474;28;45678;-70
2022/06/25 11:15:44;;;;;;;;;4.00;2.00;;;;;36.62;22.97;100708.97;4898302;29;45431;-70
2022/06/25 11:18:13;;;;;;;;;3.00;2.67;;;;;36.75;22.90;100706.78;4898457;28;45439;-70
2022/06/25 11:20:40;;;;;;;;;3.33;3.33;;;;;36.82;22.87;100702.50;4898457;28;45326;-70
2022/06/25 11:23:09;;;;;;;;;4.00;4.00;;;;;36.96;23.25;100703.06;4898636;29;45199;-70
2022/06/25 11:28:49;;;;;;;;;2.75;2.75;;;;;36.90;22.78;100693.47;4899018;29;45326;-71
2022/06/25 11:31:15;;;;;;;;;2.67;2.67;;;;;36.85;23.13;100699.44;4901405;28;45487;-70
2022/06/25 11:33:43;;;;;;;;;3.67;3.00;;;;;36.74;22.81;100703.16;4916371;28;45524;-70
2022/06/25 11:36:09;;;;;;;;;2.00;2.00;;;;;36.78;22.97;100703.75;4901103;29;46058;-70
2022/06/25 11:38:34;;;;;;;;;2.00;2.00;;;;;36.77;23.40;100717.72;4900630;28;45384;-70